createdAt,value
2023-03-30T00:01:17.236Z,7.28
2023-03-30T00:03:46.502Z,8.68
2023-03-30T00:06:21.763Z,9.32
2023-03-30T00:08:57.053Z,6.45
2023-03-30T00:11:26.788Z,8.35
2023-03-30T00:13:55.782Z,7.20
2023-03-30T00:16:47.826Z,7.82
2023-03-30T00:19:26.416Z,7.50
2023-03-30T00:21:54.521Z,5.63
2023-03-30T00:24:25.144Z,5.10
2023-03-30T00:26:56.282Z,8.70
2023-03-30T00:29:29.345Z,6.60
2023-03-30T00:31:59.958Z,5.82
2023-03-30T00:34:27.037Z,8.77
2023-03-30T00:36:54.004Z,5.72
2023-03-30T00:39:22.933Z,6.90
2023-03-30T00:41:49.823Z,6.20
2023-03-30T00:44:54.538Z,7.35
2023-03-30T00:47:22.841Z,11.20
2023-03-30T00:49:49.886Z,6.05
2023-03-30T00:52:19.348Z,5.65
2023-03-30T00:54:48.025Z,12.48
2023-03-30T00:57:15.349Z,8.95
2023-03-30T00:59:42.690Z,8.65
2023-03-30T01:02:09.734Z,4.63
2023-03-30T01:04:37.843Z,6.00
2023-03-30T01:07:05.916Z,4.45
2023-03-30T01:09:33.026Z,5.47
2023-03-30T01:12:01.090Z,11.75
2023-03-30T01:14:28.107Z,10.95
2023-03-30T01:17:23.436Z,8.45
2023-03-30T01:20:18.053Z,7.07
2023-03-30T01:23:06.206Z,6.50
2023-03-30T01:25:44.653Z,4.07
2023-03-30T01:28:14.576Z,7.95
2023-03-30T01:31:19.155Z,5.93
2023-03-30T01:34:28.075Z,5.45
2023-03-30T01:37:22.124Z,4.75
2023-03-30T01:40:13.637Z,6.47
2023-03-30T01:43:03.376Z,4.68
2023-03-30T01:45:48.808Z,8.25
2023-03-30T01:48:33.576Z,8.63
2023-03-30T01:51:05.536Z,7.22
2023-03-30T01:53:48.657Z,6.55
2023-03-30T01:56:44.765Z,11.50
2023-03-30T01:59:19.478Z,5.20
2023-03-30T02:01:50.416Z,6.00
2023-03-30T02:04:23.760Z,5.70
2023-03-30T02:07:06.423Z,6.57
2023-03-30T02:12:09.508Z,6.13
2023-03-30T02:14:47.665Z,8.50
2023-03-30T02:17:22.907Z,5.88
2023-03-30T02:20:00.885Z,10.07
2023-03-30T02:22:29.631Z,4.72
2023-03-30T02:25:00.702Z,4.97
2023-03-30T02:27:28.643Z,5.90
2023-03-30T02:29:56.692Z,4.45
2023-03-30T02:32:27.549Z,6.30
2023-03-30T02:35:29.400Z,7.05
2023-03-30T02:38:28.415Z,3.83
2023-03-30T02:41:13.033Z,8.43
2023-03-30T02:43:54.145Z,4.03
2023-03-30T02:46:27.676Z,5.40
2023-03-30T02:49:46.971Z,8.65
2023-03-30T02:53:00.485Z,7.20
2023-03-30T02:55:38.459Z,9.32
2023-03-30T02:58:56.084Z,6.35
2023-03-30T03:01:39.452Z,5.65
2023-03-30T03:04:16.861Z,6.95
2023-03-30T03:06:59.142Z,7.18
2023-03-30T03:09:28.033Z,7.65
2023-03-30T03:11:56.145Z,6.25
2023-03-30T03:14:32.051Z,6.47
2023-03-30T03:17:05.156Z,8.10
2023-03-30T03:19:37.095Z,6.15
2023-03-30T03:22:04.311Z,6.05
2023-03-30T03:24:39.200Z,5.30
2023-03-30T03:27:09.291Z,4.50
2023-03-30T03:29:53.506Z,5.40
2023-03-30T03:32:20.866Z,7.13
2023-03-30T03:34:50.051Z,5.85
2023-03-30T03:37:17.456Z,5.20
2023-03-30T03:39:45.711Z,10.98
2023-03-30T03:42:14.395Z,4.88
2023-03-30T03:44:50.176Z,8.00
2023-03-30T03:47:18.239Z,9.23
2023-03-30T03:49:46.607Z,6.63
2023-03-30T03:52:13.590Z,4.95
2023-03-30T03:54:40.611Z,6.63
2023-03-30T03:57:08.047Z,9.50
2023-03-30T03:59:35.113Z,7.45
2023-03-30T04:02:02.158Z,4.35
2023-03-30T04:04:30.903Z,4.28
2023-03-30T04:07:01.979Z,5.97
2023-03-30T04:09:30.564Z,5.90
2023-03-30T04:12:03.331Z,7.75
2023-03-30T04:14:41.832Z,9.25
2023-03-30T04:17:35.329Z,7.15
2023-03-30T04:20:17.393Z,9.65
2023-03-30T04:23:10.115Z,5.43
2023-03-30T04:29:00.894Z,5.22
2023-03-30T04:31:38.351Z,6.15
2023-03-30T04:34:22.763Z,6.70
2023-03-30T04:37:07.551Z,11.40
2023-03-30T04:39:50.245Z,4.15
2023-03-30T04:42:49.769Z,12.45
2023-03-30T04:45:31.626Z,9.13
2023-03-30T04:48:23.676Z,8.05
2023-03-30T04:51:27.749Z,5.85
2023-03-30T04:54:32.752Z,8.15
2023-03-30T04:57:30.339Z,4.15
2023-03-30T05:00:27.504Z,11.35
2023-03-30T05:03:16.268Z,4.22
2023-03-30T05:06:08.135Z,5.95
2023-03-30T05:09:14.567Z,5.13
2023-03-30T05:11:54.266Z,8.45
2023-03-30T05:14:47.668Z,5.80
2023-03-30T05:17:35.263Z,8.48
2023-03-30T05:20:18.968Z,4.55
2023-03-30T05:22:59.894Z,5.68
2023-03-30T05:25:57.141Z,9.18
2023-03-30T05:28:48.576Z,8.23
2023-03-30T05:31:33.032Z,7.68
2023-03-30T05:34:38.597Z,9.55
2023-03-30T05:37:28.888Z,7.45
2023-03-30T05:40:09.498Z,8.82
2023-03-30T05:42:57.002Z,9.90
2023-03-30T05:45:44.151Z,9.02
2023-03-30T05:48:31.263Z,4.88
2023-03-30T05:51:30.608Z,9.05
2023-03-30T05:54:06.986Z,12.05
2023-03-30T05:56:58.980Z,11.90
2023-03-30T05:59:34.083Z,9.13
2023-03-30T06:02:14.265Z,14.80
2023-03-30T06:04:42.641Z,9.52
2023-03-30T06:07:11.548Z,7.88
2023-03-30T06:09:38.664Z,11.27
2023-03-30T06:12:16.748Z,10.93
2023-03-30T06:14:45.036Z,13.77
2023-03-30T06:17:26.201Z,12.35
2023-03-30T06:19:53.716Z,11.43
2023-03-30T06:22:21.746Z,10.98
2023-03-30T06:25:01.563Z,11.77
2023-03-30T06:27:32.126Z,16.48
2023-03-30T06:29:59.920Z,8.45
2023-03-30T06:32:28.513Z,10.88
2023-03-30T06:35:21.209Z,9.30
2023-03-30T06:37:48.587Z,18.90
2023-03-30T06:40:16.114Z,13.10
2023-03-30T06:42:47.152Z,13.70
2023-03-30T06:45:38.535Z,9.77
2023-03-30T06:48:07.129Z,9.20
2023-03-30T06:50:39.058Z,19.40
2023-03-30T06:53:31.535Z,10.23
2023-03-30T06:55:59.454Z,16.60
2023-03-30T06:58:28.345Z,11.52
2023-03-30T07:00:57.086Z,14.55
2023-03-30T07:03:45.923Z,17.42
2023-03-30T07:06:21.178Z,19.77
2023-03-30T07:08:49.670Z,18.48
2023-03-30T07:13:56.250Z,15.63
2023-03-30T07:16:23.360Z,21.38
2023-03-30T07:18:52.214Z,14.18
2023-03-30T07:21:19.427Z,12.95
2023-03-30T07:23:47.706Z,13.60
2023-03-30T07:26:26.459Z,13.57
2023-03-30T07:28:59.903Z,12.57
2023-03-30T07:31:29.017Z,20.35
2023-03-30T07:33:56.816Z,16.48
2023-03-30T07:36:25.920Z,10.35
2023-03-30T07:38:54.837Z,14.20
2023-03-30T07:41:23.665Z,16.73
2023-03-30T07:43:54.616Z,15.70
2023-03-30T07:46:21.902Z,15.18
2023-03-30T07:48:52.861Z,12.48
2023-03-30T07:51:21.505Z,14.80
2023-03-30T07:54:00.050Z,22.40
2023-03-30T07:56:39.318Z,13.35
2023-03-30T07:59:08.201Z,11.02
2023-03-30T08:01:38.485Z,10.60
2023-03-30T08:04:16.113Z,11.85
2023-03-30T08:06:44.431Z,16.08
2023-03-30T08:09:12.863Z,23.65
2023-03-30T08:11:41.810Z,13.48
2023-03-30T08:14:08.889Z,8.38
2023-03-30T08:16:35.940Z,16.67
2023-03-30T08:19:04.053Z,17.00
2023-03-30T08:21:31.199Z,14.10
2023-03-30T08:24:00.629Z,11.35
2023-03-30T08:26:28.917Z,14.07
2023-03-30T08:28:59.224Z,9.43
2023-03-30T08:31:28.165Z,6.70
2023-03-30T08:33:56.643Z,13.27
2023-03-30T08:36:23.818Z,12.02
2023-03-30T08:38:55.147Z,10.45
2023-03-30T08:41:27.984Z,9.70
2023-03-30T08:44:33.033Z,13.93
2023-03-30T08:47:06.563Z,12.88
2023-03-30T08:49:41.652Z,13.93
2023-03-30T08:52:17.911Z,15.63
2023-03-30T08:54:46.026Z,13.20
2023-03-30T08:57:25.046Z,15.43
2023-03-30T09:00:22.279Z,16.23
2023-03-30T09:02:57.411Z,15.63
2023-03-30T09:05:37.551Z,10.07
2023-03-30T09:08:29.342Z,19.63
2023-03-30T09:11:02.920Z,14.68
2023-03-30T09:13:39.557Z,18.60
2023-03-30T09:16:29.350Z,15.75
2023-03-30T09:18:59.229Z,15.80
2023-03-30T09:21:32.028Z,17.30
2023-03-30T09:24:02.087Z,12.23
2023-03-30T09:26:46.272Z,19.40
2023-03-30T09:29:18.633Z,14.45
2023-03-30T09:31:51.979Z,11.48
2023-03-30T09:34:27.153Z,15.02
2023-03-30T09:37:18.672Z,15.18
2023-03-30T09:39:50.736Z,24.63
2023-03-30T09:42:59.841Z,17.35
2023-03-30T09:45:34.466Z,14.73
2023-03-30T09:48:08.697Z,15.50
2023-03-30T09:50:42.838Z,18.35
2023-03-30T09:53:25.428Z,17.50
2023-03-30T09:56:07.267Z,24.05
2023-03-30T09:58:37.232Z,16.67
2023-03-30T10:01:16.884Z,22.45
2023-03-30T10:04:07.212Z,22.30
2023-03-30T10:06:39.070Z,15.18
2023-03-30T10:09:11.462Z,16.83
2023-03-30T10:11:50.744Z,14.20
2023-03-30T10:14:29.915Z,12.95
2023-03-30T10:16:58.443Z,7.50
2023-03-30T10:19:26.108Z,12.45
2023-03-30T10:21:59.755Z,10.88
2023-03-30T10:24:31.848Z,11.30
2023-03-30T10:27:13.377Z,15.40
2023-03-30T10:29:47.799Z,16.90
2023-03-30T10:32:29.560Z,11.73
2023-03-30T10:35:02.078Z,20.75
2023-03-30T10:40:21.912Z,20.48
2023-03-30T10:42:55.548Z,19.52
2023-03-30T10:46:08.983Z,18.45
2023-03-30T10:49:05.440Z,16.02
2023-03-30T10:52:08.147Z,20.77
2023-03-30T10:55:03.185Z,21.98
2023-03-30T10:57:58.364Z,23.38
2023-03-30T11:00:35.178Z,18.83
2023-03-30T11:03:25.053Z,20.67
2023-03-30T11:05:57.434Z,17.17
2023-03-30T11:08:36.035Z,19.60
2023-03-30T11:11:04.545Z,16.30
2023-03-30T11:13:44.754Z,19.77
2023-03-30T11:16:18.908Z,12.82
2023-03-30T11:19:00.548Z,22.70
2023-03-30T11:21:36.460Z,18.15
2023-03-30T11:24:12.609Z,20.30
2023-03-30T11:26:49.747Z,20.58
2023-03-30T11:29:25.991Z,13.85
2023-03-30T11:31:56.252Z,20.63
2023-03-30T11:34:32.187Z,16.85
2023-03-30T11:37:12.733Z,25.80
2023-03-30T11:39:52.011Z,19.80
2023-03-30T11:42:27.388Z,21.13
2023-03-30T11:44:55.481Z,17.52
2023-03-30T11:47:50.379Z,19.38
2023-03-30T11:50:38.754Z,17.08
2023-03-30T11:53:17.535Z,17.98
2023-03-30T11:56:06.729Z,15.55
2023-03-30T11:58:42.510Z,18.25
2023-03-30T12:01:32.724Z,19.27
2023-03-30T12:04:50.952Z,21.92
2023-03-30T12:07:56.255Z,18.05
2023-03-30T12:10:42.275Z,19.98
2023-03-30T12:13:19.649Z,19.05
2023-03-30T12:16:02.410Z,18.38
2023-03-30T12:18:35.446Z,21.35
2023-03-30T12:21:13.388Z,18.83
2023-03-30T12:23:53.360Z,14.77
2023-03-30T12:26:29.655Z,20.95
2023-03-30T12:29:44.392Z,17.48
2023-03-30T12:31:59.165Z,20.15
2023-03-30T12:34:29.640Z,16.77
2023-03-30T12:37:15.189Z,17.88
2023-03-30T12:39:50.964Z,19.30
2023-03-30T12:42:27.009Z,24.98
2023-03-30T12:45:15.525Z,24.83
2023-03-30T12:47:48.329Z,23.63
2023-03-30T12:50:40.127Z,13.63
2023-03-30T12:53:25.657Z,14.05
2023-03-30T12:56:11.404Z,12.90
2023-03-30T12:59:03.194Z,16.15
2023-03-30T13:01:34.058Z,17.90
2023-03-30T13:04:05.578Z,18.13
2023-03-30T13:06:36.281Z,18.13
2023-03-30T13:09:15.656Z,20.73
2023-03-30T13:11:43.978Z,20.90
2023-03-30T13:14:34.114Z,14.48
2023-03-30T13:17:01.477Z,22.77
2023-03-30T13:19:32.722Z,19.33
2023-03-30T13:22:12.394Z,19.58
2023-03-30T13:24:54.327Z,15.93
2023-03-30T13:27:36.575Z,14.38
2023-03-30T13:30:10.085Z,18.20
2023-03-30T13:32:40.315Z,14.10
2023-03-30T13:35:26.018Z,12.05
2023-03-30T13:38:11.139Z,15.13
2023-03-30T13:41:05.673Z,14.43
2023-03-30T13:43:57.318Z,21.90
2023-03-30T13:46:45.069Z,17.80
2023-03-30T13:49:20.972Z,17.90
2023-03-30T13:51:49.136Z,20.02
2023-03-30T13:54:34.465Z,19.10
2023-03-30T13:57:11.520Z,17.65
2023-03-30T13:59:45.879Z,13.35
2023-03-30T14:02:17.669Z,9.07
2023-03-30T14:04:47.982Z,14.95
2023-03-30T14:07:19.609Z,13.68
2023-03-30T14:10:13.546Z,14.03
2023-03-30T14:12:42.745Z,13.60
2023-03-30T14:15:39.802Z,12.95
2023-03-30T14:18:13.691Z,6.57
2023-03-30T14:20:54.066Z,11.90
2023-03-30T14:23:36.206Z,6.65
2023-03-30T14:26:26.684Z,8.10
2023-03-30T14:29:04.676Z,13.00
2023-03-30T14:31:47.196Z,12.70
2023-03-30T14:34:33.461Z,17.33
2023-03-30T14:37:06.377Z,10.57
2023-03-30T14:39:42.829Z,6.75
2023-03-30T14:42:44.623Z,3.92
2023-03-30T14:47:51.626Z,12.00
2023-03-30T14:50:20.430Z,12.45
2023-03-30T14:52:49.209Z,11.50
2023-03-30T14:55:25.514Z,8.60
2023-03-30T14:58:12.464Z,13.20
2023-03-30T15:06:18.105Z,12.75
2023-03-30T15:08:55.382Z,14.00
2023-03-30T15:17:29.426Z,11.02
2023-03-30T15:19:59.934Z,13.93
2023-03-30T15:22:34.226Z,9.85
2023-03-30T15:25:06.646Z,12.50
2023-03-30T15:27:38.108Z,11.35
2023-03-30T15:30:06.899Z,17.40
2023-03-30T15:32:38.987Z,10.25
2023-03-30T15:35:16.102Z,9.90
2023-03-30T15:37:54.882Z,8.77
2023-03-30T15:40:40.063Z,12.15
2023-03-30T15:43:31.095Z,10.65
2023-03-30T15:46:13.756Z,16.60
2023-03-30T15:51:21.109Z,11.60
2023-03-30T15:53:56.923Z,10.50
2023-03-30T15:56:33.468Z,12.00
2023-03-30T15:59:01.879Z,9.68
2023-03-30T16:01:48.094Z,12.85
2023-03-30T16:04:17.569Z,6.78
2023-03-30T16:06:47.115Z,9.70
2023-03-30T16:09:15.012Z,13.27
2023-03-30T16:11:45.225Z,8.52
2023-03-30T16:15:08.111Z,8.57
2023-03-30T16:17:38.930Z,12.77
2023-03-30T16:20:31.183Z,7.78
2023-03-30T16:27:56.616Z,9.98
2023-03-30T16:30:31.764Z,7.90
2023-03-30T16:33:02.498Z,11.73
2023-03-30T16:36:36.082Z,7.20
2023-03-30T16:39:05.647Z,8.43
2023-03-30T16:41:35.904Z,8.48
2023-03-30T16:48:25.712Z,8.63
2023-03-30T16:54:57.439Z,13.50
2023-03-30T16:57:26.181Z,9.23
2023-03-30T16:59:54.249Z,13.25
2023-03-30T17:02:24.040Z,8.45
2023-03-30T17:04:52.191Z,10.93
2023-03-30T17:07:19.308Z,13.85
2023-03-30T17:09:48.411Z,17.17
2023-03-30T17:12:41.892Z,6.75
2023-03-30T17:15:14.340Z,12.57
2023-03-30T17:17:42.609Z,13.48
2023-03-30T17:20:24.713Z,11.77
2023-03-30T17:22:51.972Z,12.35
2023-03-30T17:25:23.885Z,8.88
2023-03-30T17:27:51.948Z,13.07
2023-03-30T17:30:36.711Z,13.27
2023-03-30T17:33:18.697Z,13.07
2023-03-30T17:36:16.771Z,11.43
2023-03-30T17:38:44.156Z,10.60
2023-03-30T17:41:13.933Z,9.30
2023-03-30T17:43:43.484Z,12.13
2023-03-30T17:46:13.924Z,7.43
2023-03-30T17:48:41.829Z,13.05
2023-03-30T17:51:09.585Z,12.95
2023-03-30T17:53:37.300Z,17.08
2023-03-30T17:56:05.071Z,12.70
2023-03-30T17:58:35.163Z,14.90
2023-03-30T18:01:05.235Z,9.13
2023-03-30T18:03:32.855Z,12.90
2023-03-30T18:06:01.928Z,9.40
2023-03-30T18:08:30.716Z,10.48
2023-03-30T18:11:00.145Z,10.38
2023-03-30T18:13:30.765Z,14.20
2023-03-30T18:15:59.569Z,10.75
2023-03-30T18:18:29.463Z,7.97
2023-03-30T18:21:05.215Z,8.95
2023-03-30T18:23:34.850Z,7.38
2023-03-30T18:26:11.040Z,10.30
2023-03-30T18:28:48.398Z,11.07
2023-03-30T18:31:15.566Z,7.32
2023-03-30T18:33:42.580Z,7.18
2023-03-30T18:36:13.147Z,6.32
2023-03-30T18:38:41.207Z,10.00
2023-03-30T18:41:13.575Z,8.18
2023-03-30T18:43:43.203Z,10.40
2023-03-30T18:46:13.275Z,14.02
2023-03-30T18:48:42.450Z,12.15
2023-03-30T18:51:12.665Z,11.05
2023-03-30T18:53:53.136Z,11.35
2023-03-30T18:56:20.578Z,8.32
2023-03-30T18:58:49.579Z,10.52
2023-03-30T19:01:16.609Z,6.97
2023-03-30T19:03:44.840Z,12.25
2023-03-30T19:06:15.992Z,9.88
2023-03-30T19:08:43.586Z,15.30
2023-03-30T19:11:17.906Z,13.25
2023-03-30T19:13:49.816Z,11.73
2023-03-30T19:16:18.531Z,10.03
2023-03-30T19:18:47.470Z,13.50
2023-03-30T19:21:24.663Z,13.25
2023-03-30T19:23:53.705Z,9.57
2023-03-30T19:26:23.293Z,13.18
2023-03-30T19:28:53.639Z,21.17
2023-03-30T19:31:20.740Z,16.55
2023-03-30T19:33:49.781Z,19.27
2023-03-30T19:36:18.019Z,11.43
2023-03-30T19:38:48.525Z,16.75
2023-03-30T19:41:16.628Z,16.17
2023-03-30T19:43:45.571Z,19.17
2023-03-30T19:46:13.577Z,15.02
2023-03-30T19:48:43.353Z,9.43
2023-03-30T19:51:12.241Z,15.75
2023-03-30T19:53:39.303Z,15.48
2023-03-30T19:56:11.128Z,11.57
2023-03-30T19:58:39.312Z,15.30
2023-03-30T20:01:10.393Z,16.83
2023-03-30T20:03:39.738Z,20.52
2023-03-30T20:06:12.695Z,19.45
2023-03-30T20:08:40.613Z,15.50
2023-03-30T20:11:10.605Z,12.52
2023-03-30T20:13:37.616Z,14.40
2023-03-30T20:17:00.759Z,19.08
2023-03-30T20:19:32.972Z,16.55
2023-03-30T20:22:01.253Z,12.18
2023-03-30T20:24:51.422Z,12.63
2023-03-30T20:27:43.231Z,11.30
2023-03-30T20:30:21.283Z,19.15
2023-03-30T20:33:06.275Z,15.00
2023-03-30T20:35:39.128Z,10.77
2023-03-30T20:40:36.272Z,9.82
2023-03-30T20:43:10.203Z,18.20
2023-03-30T20:45:46.556Z,15.13
2023-03-30T20:48:28.990Z,11.05
2023-03-30T20:50:57.561Z,17.77
2023-03-30T20:53:26.636Z,21.98
2023-03-30T20:55:54.514Z,17.63
2023-03-30T20:58:25.398Z,18.08
2023-03-30T21:00:59.232Z,21.40
2023-03-30T21:03:37.949Z,17.13
2023-03-30T21:06:07.070Z,20.33
2023-03-30T21:08:36.396Z,14.77
2023-03-30T21:11:03.749Z,19.25
2023-03-30T21:13:33.985Z,15.52
2023-03-30T21:16:06.982Z,19.35
2023-03-30T21:18:35.679Z,16.95
2023-03-30T21:21:06.410Z,17.17
2023-03-30T21:23:40.073Z,17.80
2023-03-30T21:26:08.269Z,13.55
2023-03-30T21:28:39.035Z,18.83
2023-03-30T21:31:08.932Z,18.42
2023-03-30T21:33:36.788Z,13.18
2023-03-30T21:36:05.293Z,14.73
2023-03-30T21:38:35.658Z,9.82
2023-03-30T21:41:04.862Z,11.15
2023-03-30T21:43:35.022Z,11.65
2023-03-30T21:46:07.593Z,10.73
2023-03-30T21:48:37.800Z,11.35
2023-03-30T21:51:08.283Z,12.95
2023-03-30T21:53:38.577Z,11.05
2023-03-30T21:56:07.350Z,10.20
2023-03-30T21:58:36.437Z,12.93
2023-03-30T22:01:12.473Z,12.13
2023-03-30T22:03:42.403Z,13.85
2023-03-30T22:06:13.262Z,9.15
2023-03-30T22:08:41.628Z,8.32
2023-03-30T22:11:13.749Z,16.13
2023-03-30T22:13:44.324Z,10.68
2023-03-30T22:16:17.778Z,12.10
2023-03-30T22:18:46.710Z,8.23
2023-03-30T22:21:34.496Z,12.88
2023-03-30T22:24:07.409Z,10.70
2023-03-30T22:29:02.048Z,11.90
2023-03-30T22:31:29.302Z,11.52
2023-03-30T22:33:56.923Z,8.48
2023-03-30T22:36:31.265Z,13.98
2023-03-30T22:39:00.676Z,16.20
2023-03-30T22:41:28.441Z,12.55
2023-03-30T22:43:57.434Z,10.90
2023-03-30T22:46:26.214Z,8.27
2023-03-30T22:48:55.688Z,11.13
2023-03-30T22:51:28.022Z,17.25
2023-03-30T22:56:28.760Z,11.73
2023-03-30T22:58:56.378Z,11.93
2023-03-30T23:01:23.871Z,11.75
2023-03-30T23:03:53.184Z,9.25
2023-03-30T23:06:20.440Z,14.98
2023-03-30T23:08:48.756Z,13.80
2023-03-30T23:11:21.688Z,15.23
2023-03-30T23:13:49.492Z,14.98
2023-03-30T23:16:16.549Z,18.38
2023-03-30T23:18:43.571Z,12.93
2023-03-30T23:21:11.341Z,15.90
2023-03-30T23:23:38.677Z,19.10
2023-03-30T23:26:10.272Z,17.88
2023-03-30T23:28:41.855Z,18.53
2023-03-30T23:31:09.926Z,9.93
2023-03-30T23:33:37.073Z,15.55
2023-03-30T23:36:06.305Z,16.98
2023-03-30T23:38:37.687Z,19.50
2023-03-30T23:41:06.229Z,17.50
2023-03-30T23:43:34.430Z,10.88
2023-03-30T23:46:02.665Z,20.13
2023-03-30T23:48:30.205Z,17.80
2023-03-30T23:51:26.441Z,15.75
2023-03-30T23:53:56.765Z,20.60
2023-03-30T23:56:27.847Z,20.60
2023-03-30T23:58:59.976Z,16.60
